createdAt,value
2018-02-05T00:00:11.049Z,8.33
2018-02-05T00:02:37.464Z,8.32
2018-02-05T00:05:03.856Z,8.13
2018-02-05T00:07:30.251Z,8.22
2018-02-05T00:09:56.606Z,8.06
2018-02-05T00:12:23.054Z,7.96
2018-02-05T00:14:49.461Z,8.09
2018-02-05T00:17:15.825Z,8.18
2018-02-05T00:19:42.225Z,8.08
2018-02-05T00:22:15.733Z,8.13
2018-02-05T00:24:42.112Z,8.15
2018-02-05T00:27:08.466Z,7.98
2018-02-05T00:29:34.896Z,7.91
2018-02-05T00:32:01.228Z,7.96
2018-02-05T00:34:27.604Z,7.95
2018-02-05T00:36:54.076Z,7.72
2018-02-05T00:39:20.435Z,7.85
2018-02-05T00:41:46.788Z,7.89
2018-02-05T00:44:13.212Z,7.84
2018-02-05T00:46:39.576Z,7.78
2018-02-05T00:49:05.916Z,7.77
2018-02-05T00:51:32.376Z,7.88
2018-02-05T00:53:58.732Z,7.66
2018-02-05T00:56:25.092Z,7.71
2018-02-05T00:58:51.495Z,7.40
2018-02-05T01:01:17.829Z,7.57
2018-02-05T01:03:44.221Z,7.62
2018-02-05T01:06:10.605Z,7.69
2018-02-05T01:08:36.971Z,7.81
2018-02-05T01:11:03.333Z,7.93
2018-02-05T01:13:29.686Z,7.97
2018-02-05T01:15:56.020Z,8.07
2018-02-05T01:18:22.436Z,8.01
2018-02-05T01:20:48.864Z,8.04
2018-02-05T01:23:15.232Z,8.06
2018-02-05T01:25:41.577Z,8.03
2018-02-05T01:28:07.963Z,8.07
2018-02-05T01:30:34.348Z,7.93
2018-02-05T01:33:00.758Z,7.98
2018-02-05T01:35:27.124Z,8.00
2018-02-05T01:37:53.485Z,7.97
2018-02-05T01:40:19.893Z,7.82
2018-02-05T01:42:46.240Z,7.87
2018-02-05T01:45:12.602Z,7.93
2018-02-05T01:47:38.984Z,7.98
2018-02-05T01:50:05.368Z,7.98
2018-02-05T01:52:31.698Z,8.01
2018-02-05T01:54:58.108Z,8.01
2018-02-05T01:57:24.438Z,8.16
2018-02-05T01:59:50.832Z,8.19
2018-02-05T02:02:17.207Z,8.13
2018-02-05T02:04:43.628Z,8.10
2018-02-05T02:07:10.013Z,8.09
2018-02-05T02:09:36.469Z,8.01
2018-02-05T02:12:02.916Z,8.08
2018-02-05T02:14:29.272Z,8.05
2018-02-05T02:16:55.657Z,7.95
2018-02-05T02:19:22.117Z,8.03
2018-02-05T02:21:48.521Z,7.81
2018-02-05T02:24:14.960Z,7.78
2018-02-05T02:26:41.409Z,7.87
2018-02-05T02:29:07.816Z,7.93
2018-02-05T02:31:34.182Z,7.91
2018-02-05T02:34:00.540Z,7.90
2018-02-05T02:36:26.944Z,7.81
2018-02-05T02:38:53.296Z,7.76
2018-02-05T02:41:19.689Z,7.75
2018-02-05T02:43:46.077Z,7.52
2018-02-05T02:46:12.492Z,7.52
2018-02-05T02:48:38.873Z,7.65
2018-02-05T02:51:05.261Z,7.64
2018-02-05T02:53:31.621Z,7.58
2018-02-05T02:55:58.021Z,7.43
2018-02-05T02:58:24.396Z,7.35
2018-02-05T03:00:50.728Z,7.24
2018-02-05T03:03:17.068Z,7.35
2018-02-05T03:05:43.448Z,7.30
2018-02-05T03:08:09.809Z,7.39
2018-02-05T03:10:36.160Z,7.27
2018-02-05T03:13:02.573Z,7.34
2018-02-05T03:15:28.949Z,7.45
2018-02-05T03:17:55.304Z,7.48
2018-02-05T03:20:21.697Z,7.45
2018-02-05T03:22:48.249Z,7.31
2018-02-05T03:25:14.607Z,7.29
2018-02-05T03:27:41.024Z,7.14
2018-02-05T03:30:07.401Z,7.23
2018-02-05T03:32:33.745Z,7.26
2018-02-05T03:35:00.140Z,7.26
2018-02-05T03:37:26.487Z,7.21
2018-02-05T03:39:52.900Z,7.22
2018-02-05T03:42:19.285Z,7.06
2018-02-05T03:44:45.664Z,7.18
2018-02-05T03:47:12.120Z,7.02
2018-02-05T03:49:38.505Z,7.10
2018-02-05T03:52:04.853Z,7.05
2018-02-05T03:54:31.272Z,7.10
2018-02-05T03:56:57.625Z,7.10
2018-02-05T03:59:24.034Z,6.96
2018-02-05T04:01:50.456Z,7.00
2018-02-05T04:04:16.809Z,7.01
2018-02-05T04:06:49.124Z,6.92
2018-02-05T04:09:15.652Z,6.92
2018-02-05T04:11:42.053Z,6.80
2018-02-05T04:14:08.496Z,6.91
2018-02-05T04:16:35.028Z,6.91
2018-02-05T04:19:01.482Z,6.94
2018-02-05T04:21:27.828Z,6.99
2018-02-05T04:23:54.197Z,6.83
2018-02-05T04:26:20.584Z,6.61
2018-02-05T04:28:47.128Z,6.87
2018-02-05T04:31:13.477Z,6.88
2018-02-05T04:33:39.882Z,6.89
2018-02-05T04:36:06.233Z,6.87
2018-02-05T04:38:32.596Z,6.86
2018-02-05T04:40:59.022Z,6.88
2018-02-05T04:43:25.388Z,6.52
2018-02-05T04:45:51.761Z,6.77
2018-02-05T04:48:18.149Z,6.86
2018-02-05T04:50:44.500Z,6.83
2018-02-05T04:53:10.889Z,6.84
2018-02-05T04:55:37.281Z,6.86
2018-02-05T04:58:03.620Z,6.69
2018-02-05T05:00:29.996Z,6.85
2018-02-05T05:02:56.384Z,6.92
2018-02-05T05:05:22.720Z,6.53
2018-02-05T05:07:49.096Z,6.31
2018-02-05T05:10:15.493Z,6.41
2018-02-05T05:12:41.844Z,6.51
2018-02-05T05:15:08.201Z,6.51
2018-02-05T05:17:34.589Z,6.45
2018-02-05T05:20:00.978Z,6.60
2018-02-05T05:22:27.319Z,6.65
2018-02-05T05:24:53.684Z,6.62
2018-02-05T05:27:20.025Z,6.64
2018-02-05T05:29:46.384Z,6.54
2018-02-05T05:32:12.769Z,6.47
2018-02-05T05:34:39.180Z,6.40
2018-02-05T05:37:05.520Z,6.59
2018-02-05T05:39:31.884Z,6.39
2018-02-05T05:41:58.273Z,6.51
2018-02-05T05:44:24.615Z,6.43
2018-02-05T05:46:51.013Z,6.61
2018-02-05T05:49:17.357Z,6.67
2018-02-05T05:51:43.725Z,6.43
2018-02-05T05:54:10.280Z,6.53
2018-02-05T05:56:36.646Z,6.65
2018-02-05T05:59:03.001Z,6.58
2018-02-05T06:01:29.367Z,6.45
2018-02-05T06:03:55.866Z,6.52
2018-02-05T06:06:22.221Z,6.40
2018-02-05T06:08:48.608Z,6.60
2018-02-05T06:11:15.084Z,6.69
2018-02-05T06:13:41.432Z,6.58
2018-02-05T06:16:07.805Z,6.61
2018-02-05T06:18:34.240Z,6.60
2018-02-05T06:21:00.631Z,6.63
2018-02-05T06:23:26.973Z,6.39
2018-02-05T06:25:53.332Z,6.51
2018-02-05T06:28:19.833Z,6.49
2018-02-05T06:30:46.222Z,6.49
2018-02-05T06:33:12.759Z,6.49
2018-02-05T06:35:39.149Z,6.62
2018-02-05T06:38:05.529Z,6.64
2018-02-05T06:40:32.094Z,6.77
2018-02-05T06:42:58.529Z,6.71
2018-02-05T06:45:24.886Z,6.72
2018-02-05T06:47:51.280Z,6.63
2018-02-05T06:50:29.801Z,6.69
2018-02-05T06:53:08.145Z,6.77
2018-02-05T06:55:46.553Z,6.79
2018-02-05T06:58:13.015Z,6.52
2018-02-05T07:00:39.405Z,6.51
2018-02-05T07:03:05.801Z,6.68
2018-02-05T07:05:32.141Z,6.66
2018-02-05T07:07:58.499Z,6.85
2018-02-05T07:10:24.841Z,6.90
2018-02-05T07:12:51.245Z,6.86
2018-02-05T07:15:17.644Z,6.94
2018-02-05T07:17:44.091Z,6.96
2018-02-05T07:20:10.589Z,6.81
2018-02-05T07:22:37.388Z,6.90
2018-02-05T07:25:04.526Z,6.67
2018-02-05T07:27:31.728Z,6.73
2018-02-05T07:29:58.089Z,6.72
2018-02-05T07:32:24.477Z,6.84
2018-02-05T07:34:50.897Z,6.94
2018-02-05T07:37:17.257Z,7.01
2018-02-05T07:39:43.616Z,6.96
2018-02-05T07:42:10.017Z,7.05
2018-02-05T07:44:36.398Z,7.19
2018-02-05T07:47:02.763Z,7.32
2018-02-05T07:49:29.188Z,7.35
2018-02-05T07:51:55.600Z,7.45
2018-02-05T07:54:21.961Z,7.30
2018-02-05T07:56:48.736Z,7.34
2018-02-05T07:59:15.146Z,7.34
2018-02-05T08:01:41.684Z,7.35
2018-02-05T08:04:08.173Z,7.22
2018-02-05T08:06:34.576Z,7.28
2018-02-05T08:09:01.041Z,7.57
2018-02-05T08:11:27.420Z,7.61
2018-02-05T08:13:53.794Z,7.96
2018-02-05T08:16:20.204Z,7.99
2018-02-05T08:18:46.672Z,7.92
2018-02-05T08:21:13.136Z,8.02
2018-02-05T08:23:39.613Z,7.68
2018-02-05T08:26:05.949Z,7.60
2018-02-05T08:28:32.371Z,7.81
2018-02-05T08:30:58.840Z,7.77
2018-02-05T08:33:25.240Z,8.20
2018-02-05T08:35:51.652Z,8.21
2018-02-05T08:38:18.872Z,8.31
2018-02-05T08:40:45.336Z,8.60
2018-02-05T08:43:11.814Z,8.30
2018-02-05T08:45:38.487Z,8.18
2018-02-05T08:48:04.864Z,8.48
2018-02-05T08:50:31.425Z,8.48
2018-02-05T08:52:58.518Z,8.38
2018-02-05T08:55:24.935Z,8.76
2018-02-05T08:57:51.557Z,8.80
2018-02-05T09:00:18.033Z,8.70
2018-02-05T09:02:44.413Z,8.72
2018-02-05T09:05:11.213Z,8.48
2018-02-05T09:07:37.823Z,8.45
2018-02-05T09:10:04.654Z,8.73
2018-02-05T09:12:31.900Z,8.92
2018-02-05T09:15:01.736Z,9.18
2018-02-05T09:17:29.145Z,8.89
2018-02-05T09:19:56.264Z,9.07
2018-02-05T09:22:22.638Z,9.15
2018-02-05T09:24:49.046Z,9.23
2018-02-05T09:27:15.505Z,9.29
2018-02-05T09:29:41.937Z,9.50
2018-02-05T09:32:08.371Z,9.17
2018-02-05T09:34:34.865Z,9.00
2018-02-05T09:37:02.281Z,9.07
2018-02-05T09:39:28.732Z,9.36
2018-02-05T09:41:55.285Z,9.55
2018-02-05T09:44:21.790Z,9.34
2018-02-05T09:46:49.583Z,9.38
2018-02-05T09:49:16.352Z,9.33
2018-02-05T09:51:42.837Z,9.55
2018-02-05T09:54:09.292Z,9.55
2018-02-05T09:56:35.833Z,9.66
2018-02-05T09:59:02.421Z,9.88
2018-02-05T10:01:28.780Z,9.72
2018-02-05T10:03:55.208Z,9.67
2018-02-05T10:06:21.587Z,9.66
2018-02-05T10:08:47.980Z,9.95
2018-02-05T10:11:14.512Z,9.87
2018-02-05T10:13:40.997Z,9.84
2018-02-05T10:16:07.401Z,9.84
2018-02-05T10:18:33.896Z,9.76
2018-02-05T10:21:00.265Z,9.87
2018-02-05T10:23:26.640Z,9.99
2018-02-05T10:25:53.182Z,10.05
2018-02-05T10:28:19.565Z,10.15
2018-02-05T10:30:45.976Z,10.28
2018-02-05T10:33:12.386Z,10.36
2018-02-05T10:35:38.865Z,10.16
2018-02-05T10:38:05.274Z,10.07
2018-02-05T10:40:31.687Z,10.10
2018-02-05T10:42:58.093Z,10.24
2018-02-05T10:45:24.544Z,10.18
2018-02-05T10:47:50.928Z,10.10
2018-02-05T10:50:17.308Z,9.90
2018-02-05T10:52:43.760Z,10.10
2018-02-05T10:55:10.100Z,10.39
2018-02-05T10:57:36.476Z,10.52
2018-02-05T11:00:03.022Z,10.56
2018-02-05T11:02:29.435Z,10.72
2018-02-05T11:04:55.817Z,10.67
2018-02-05T11:07:22.239Z,10.40
2018-02-05T11:09:48.592Z,10.60
2018-02-05T11:12:14.981Z,10.77
2018-02-05T11:14:41.503Z,10.41
2018-02-05T11:17:08.165Z,10.46
2018-02-05T11:19:34.533Z,10.67
2018-02-05T11:22:01.096Z,10.73
2018-02-05T11:24:27.890Z,10.82
2018-02-05T11:26:54.344Z,10.47
2018-02-05T11:29:20.953Z,10.40
2018-02-05T11:31:47.433Z,10.82
2018-02-05T11:34:13.885Z,10.72
2018-02-05T11:36:41.236Z,10.80
2018-02-05T11:39:07.692Z,10.91
2018-02-05T11:41:34.401Z,11.05
2018-02-05T11:44:00.860Z,11.20
2018-02-05T11:46:27.276Z,10.95
2018-02-05T11:48:53.715Z,11.05
2018-02-05T11:51:20.145Z,11.21
2018-02-05T11:53:46.623Z,11.28
2018-02-05T11:56:13.044Z,11.33
2018-02-05T11:58:39.628Z,11.05
2018-02-05T12:01:06.313Z,11.09
2018-02-05T12:03:32.801Z,10.90
2018-02-05T12:05:59.695Z,10.85
2018-02-05T12:08:26.247Z,11.02
2018-02-05T12:10:52.649Z,10.98
2018-02-05T12:13:19.152Z,10.95
2018-02-05T12:15:45.732Z,10.99
2018-02-05T12:18:12.140Z,11.07
2018-02-05T12:20:38.629Z,11.10
2018-02-05T12:23:05.054Z,11.07
2018-02-05T12:25:31.472Z,11.11
2018-02-05T12:27:57.888Z,11.18
2018-02-05T12:30:24.368Z,11.15
2018-02-05T12:32:50.744Z,11.05
2018-02-05T12:35:17.461Z,10.98
2018-02-05T12:37:44.785Z,10.94
2018-02-05T12:40:11.256Z,10.98
2018-02-05T12:42:37.749Z,11.02
2018-02-05T12:45:04.165Z,11.02
2018-02-05T12:47:30.539Z,11.12
2018-02-05T12:49:57.030Z,11.14
2018-02-05T12:52:23.380Z,11.05
2018-02-05T12:54:49.792Z,11.06
2018-02-05T12:57:16.257Z,10.88
2018-02-05T12:59:48.620Z,10.92
2018-02-05T13:02:15.217Z,10.99
2018-02-05T13:04:41.633Z,10.75
2018-02-05T13:07:08.059Z,10.62
2018-02-05T13:09:34.517Z,10.86
2018-02-05T13:12:00.860Z,10.94
2018-02-05T13:14:27.563Z,11.05
2018-02-05T13:16:54.073Z,10.99
2018-02-05T13:19:20.509Z,11.01
2018-02-05T13:21:46.904Z,10.78
2018-02-05T13:24:13.337Z,10.88
2018-02-05T13:26:39.701Z,10.95
2018-02-05T13:29:06.153Z,10.83
2018-02-05T13:31:32.662Z,10.62
2018-02-05T13:33:59.184Z,10.68
2018-02-05T13:36:25.693Z,10.89
2018-02-05T13:38:52.073Z,10.93
2018-02-05T13:41:18.456Z,11.04
2018-02-05T13:43:45.672Z,10.95
2018-02-05T13:46:12.382Z,10.93
2018-02-05T13:48:38.774Z,10.46
2018-02-05T13:51:05.475Z,10.47
2018-02-05T13:53:32.113Z,10.53
2018-02-05T13:55:59.580Z,10.68
2018-02-05T13:58:25.968Z,10.63
2018-02-05T14:00:53.979Z,10.77
2018-02-05T14:03:20.833Z,10.72
2018-02-05T14:05:47.472Z,10.81
2018-02-05T14:08:13.907Z,10.75
2018-02-05T14:10:40.920Z,10.77
2018-02-05T14:13:07.385Z,10.50
2018-02-05T14:15:33.796Z,10.48
2018-02-05T14:18:01.233Z,10.51
2018-02-05T14:20:27.701Z,10.32
2018-02-05T14:22:54.703Z,10.54
2018-02-05T14:25:21.284Z,10.68
2018-02-05T14:27:47.695Z,10.49
2018-02-05T14:30:14.189Z,10.69
2018-02-05T14:32:40.820Z,10.74
2018-02-05T14:35:07.208Z,10.65
2018-02-05T14:37:33.684Z,10.54
2018-02-05T14:40:00.330Z,10.61
2018-02-05T14:42:26.834Z,10.66
2018-02-05T14:44:53.316Z,10.71
2018-02-05T14:47:19.776Z,10.75
2018-02-05T14:49:46.146Z,10.76
2018-02-05T14:52:12.592Z,10.75
2018-02-05T14:54:39.026Z,10.72
2018-02-05T14:57:05.508Z,10.67
2018-02-05T14:59:31.917Z,10.65
2018-02-05T15:01:58.376Z,10.53
2018-02-05T15:04:24.786Z,10.49
2018-02-05T15:06:51.166Z,10.53
2018-02-05T15:09:17.637Z,10.57
2018-02-05T15:11:44.020Z,10.52
2018-02-05T15:14:10.450Z,10.52
2018-02-05T15:16:36.965Z,10.52
2018-02-05T15:19:03.752Z,10.50
2018-02-05T15:21:30.489Z,10.48
2018-02-05T15:23:56.932Z,10.45
2018-02-05T15:26:23.436Z,10.42
2018-02-05T15:28:50.132Z,10.37
2018-02-05T15:31:17.648Z,10.36
2018-02-05T15:33:44.612Z,10.30
2018-02-05T15:36:11.132Z,10.22
2018-02-05T15:38:37.616Z,10.26
2018-02-05T15:41:04.033Z,10.28
2018-02-05T15:43:30.485Z,10.28
2018-02-05T15:45:56.916Z,10.22
2018-02-05T15:48:23.348Z,10.17
2018-02-05T15:50:49.776Z,10.11
2018-02-05T15:53:16.217Z,10.14
2018-02-05T15:55:42.633Z,10.15
2018-02-05T15:58:09.422Z,10.16
2018-02-05T16:00:35.952Z,10.18
2018-02-05T16:03:02.361Z,10.17
2018-02-05T16:05:28.757Z,10.18
2018-02-05T16:07:55.200Z,10.18
2018-02-05T16:10:21.613Z,10.18
2018-02-05T16:12:48.017Z,10.16
2018-02-05T16:15:14.514Z,10.15
2018-02-05T16:17:40.911Z,10.10
2018-02-05T16:20:07.500Z,10.08
2018-02-05T16:22:33.929Z,10.08
2018-02-05T16:25:00.336Z,9.97
2018-02-05T16:27:26.720Z,9.98
2018-02-05T16:29:53.129Z,10.02
2018-02-05T16:32:19.542Z,10.10
2018-02-05T16:34:45.946Z,10.07
2018-02-05T16:37:12.334Z,9.96
2018-02-05T16:39:38.744Z,9.93
2018-02-05T16:42:05.124Z,9.92
2018-02-05T16:44:31.537Z,9.89
2018-02-05T16:46:57.955Z,9.90
2018-02-05T16:49:25.283Z,9.89
2018-02-05T16:51:51.678Z,9.89
2018-02-05T16:54:18.132Z,9.80
2018-02-05T16:56:44.547Z,9.53
2018-02-05T16:59:10.969Z,9.61
2018-02-05T17:01:37.422Z,9.66
2018-02-05T17:04:03.809Z,9.63
2018-02-05T17:06:30.164Z,9.55
2018-02-05T17:08:56.576Z,9.44
2018-02-05T17:11:23.190Z,9.53
2018-02-05T17:13:49.631Z,9.50
2018-02-05T17:16:16.087Z,9.51
2018-02-05T17:18:42.483Z,9.54
2018-02-05T17:21:08.841Z,9.58
2018-02-05T17:23:35.241Z,9.59
2018-02-05T17:26:02.426Z,9.56
2018-02-05T17:28:28.853Z,9.49
2018-02-05T17:30:55.208Z,9.42
2018-02-05T17:33:21.577Z,9.37
2018-02-05T17:35:48.081Z,9.41
2018-02-05T17:38:14.495Z,9.28
2018-02-05T17:40:40.949Z,9.38
2018-02-05T17:43:07.339Z,9.34
2018-02-05T17:45:33.731Z,9.37
2018-02-05T17:48:00.104Z,9.39
2018-02-05T17:50:27.193Z,9.30
2018-02-05T17:52:54.235Z,9.29
2018-02-05T17:55:20.653Z,9.11
2018-02-05T17:57:47.017Z,9.03
2018-02-05T18:00:14.322Z,8.99
2018-02-05T18:02:40.779Z,8.93
2018-02-05T18:05:08.141Z,8.98
2018-02-05T18:07:34.510Z,8.94
2018-02-05T18:10:00.867Z,8.92
2018-02-05T18:12:27.281Z,8.90
2018-02-05T18:14:53.671Z,8.81
2018-02-05T18:17:20.882Z,8.82
2018-02-05T18:19:47.301Z,8.78
2018-02-05T18:22:13.672Z,8.74
2018-02-05T18:24:40.024Z,8.74
2018-02-05T18:27:07.067Z,8.72
2018-02-05T18:29:33.442Z,8.66
2018-02-05T18:31:59.838Z,8.70
2018-02-05T18:34:26.242Z,8.75
2018-02-05T18:36:52.619Z,8.54
2018-02-05T18:39:19.013Z,8.55
2018-02-05T18:41:45.937Z,8.57
2018-02-05T18:44:12.294Z,8.49
2018-02-05T18:46:38.742Z,8.53
2018-02-05T18:49:05.162Z,8.54
2018-02-05T18:51:31.521Z,8.52
2018-02-05T18:53:57.962Z,8.47
2018-02-05T18:56:36.632Z,8.43
2018-02-05T18:59:02.992Z,8.23
2018-02-05T19:01:30.428Z,8.25
2018-02-05T19:03:56.792Z,8.22
2018-02-05T19:06:23.153Z,8.36
2018-02-05T19:08:49.522Z,8.41
2018-02-05T19:11:16.038Z,8.41
2018-02-05T19:13:42.470Z,8.38
2018-02-05T19:16:08.889Z,8.51
2018-02-05T19:18:35.358Z,8.46
2018-02-05T19:21:01.765Z,8.46
2018-02-05T19:23:29.021Z,8.49
2018-02-05T19:25:55.477Z,8.42
2018-02-05T19:28:21.912Z,8.51
2018-02-05T19:30:48.354Z,8.53
2018-02-05T19:33:14.943Z,8.40
2018-02-05T19:35:42.360Z,8.43
2018-02-05T19:38:08.725Z,8.46
2018-02-05T19:40:35.077Z,8.47
2018-02-05T19:43:01.454Z,8.46
2018-02-05T19:45:27.910Z,8.35
2018-02-05T19:47:54.284Z,8.38
2018-02-05T19:50:20.671Z,8.34
2018-02-05T19:52:47.089Z,8.28
2018-02-05T19:55:13.478Z,8.26
2018-02-05T19:57:39.828Z,8.27
2018-02-05T20:00:07.246Z,8.13
2018-02-05T20:02:34.414Z,8.22
2018-02-05T20:05:01.681Z,8.15
2018-02-05T20:07:28.870Z,8.22
2018-02-05T20:09:55.274Z,8.16
2018-02-05T20:12:22.041Z,8.11
2018-02-05T20:14:48.444Z,8.20
2018-02-05T20:17:21.817Z,8.18
2018-02-05T20:19:48.236Z,8.15
2018-02-05T20:22:15.334Z,8.07
2018-02-05T20:24:41.701Z,8.05
2018-02-05T20:27:09.071Z,7.96
2018-02-05T20:29:35.529Z,8.01
2018-02-05T20:32:02.858Z,7.98
2018-02-05T20:34:29.357Z,7.94
2018-02-05T20:36:55.783Z,7.88
2018-02-05T20:39:23.096Z,7.94
2018-02-05T20:41:49.494Z,7.96
2018-02-05T20:44:15.902Z,7.89
2018-02-05T20:46:42.276Z,7.77
2018-02-05T20:49:08.654Z,7.95
2018-02-05T20:51:35.084Z,7.90
2018-02-05T20:54:01.491Z,7.92
2018-02-05T20:56:28.926Z,7.93
2018-02-05T20:58:55.380Z,7.63
2018-02-05T21:01:21.737Z,7.71
2018-02-05T21:03:48.145Z,7.75
2018-02-05T21:06:14.941Z,7.73
2018-02-05T21:08:43.130Z,7.74
2018-02-05T21:11:11.466Z,7.63
2018-02-05T21:13:39.640Z,7.71
2018-02-05T21:16:06.409Z,7.53
2018-02-05T21:18:32.836Z,7.77
2018-02-05T21:20:59.226Z,7.71
2018-02-05T21:23:25.608Z,7.50
2018-02-05T21:25:51.986Z,7.56
2018-02-05T21:28:18.386Z,7.63
2018-02-05T21:30:44.833Z,7.57
2018-02-05T21:33:11.230Z,7.65
2018-02-05T21:35:37.622Z,7.69
2018-02-05T21:38:03.994Z,7.69
2018-02-05T21:40:30.400Z,7.73
2018-02-05T21:42:56.782Z,7.68
2018-02-05T21:45:23.128Z,7.63
2018-02-05T21:47:49.556Z,7.76
2018-02-05T21:50:16.057Z,7.65
2018-02-05T21:52:42.557Z,7.69
2018-02-05T21:55:09.088Z,7.62
2018-02-05T21:57:35.460Z,7.68
2018-02-05T22:00:01.837Z,7.69
2018-02-05T22:02:28.297Z,7.68
2018-02-05T22:04:54.672Z,7.51
2018-02-05T22:07:21.034Z,7.75
2018-02-05T22:09:47.417Z,7.88
2018-02-05T22:12:13.811Z,7.37
2018-02-05T22:14:40.280Z,7.58
2018-02-05T22:17:06.682Z,7.50
2018-02-05T22:19:33.124Z,7.52
2018-02-05T22:21:59.480Z,7.48
2018-02-05T22:24:25.888Z,7.40
2018-02-05T22:26:52.292Z,7.43
2018-02-05T22:29:18.638Z,7.22
2018-02-05T22:31:52.752Z,7.19
2018-02-05T22:34:19.126Z,7.24
2018-02-05T22:36:45.497Z,7.34
2018-02-05T22:39:11.913Z,7.29
2018-02-05T22:41:38.299Z,7.32
2018-02-05T22:44:04.661Z,7.48
2018-02-05T22:46:31.081Z,7.44
2018-02-05T22:48:57.438Z,7.36
2018-02-05T22:51:23.800Z,7.30
2018-02-05T22:53:51.209Z,7.49
2018-02-05T22:56:17.576Z,7.52
2018-02-05T22:58:43.968Z,7.42
2018-02-05T23:01:10.341Z,7.48
2018-02-05T23:03:36.853Z,7.27
2018-02-05T23:06:03.269Z,7.21
2018-02-05T23:08:29.633Z,7.37
2018-02-05T23:10:56.425Z,7.44
2018-02-05T23:13:23.021Z,7.37
2018-02-05T23:15:49.417Z,7.28
2018-02-05T23:18:15.911Z,7.13
2018-02-05T23:20:42.314Z,7.09
2018-02-05T23:23:08.733Z,7.02
2018-02-05T23:25:35.129Z,7.07
2018-02-05T23:28:01.561Z,7.05
2018-02-05T23:30:27.929Z,7.00
2018-02-05T23:32:54.281Z,7.23
2018-02-05T23:35:20.690Z,7.26
2018-02-05T23:37:47.051Z,7.27
2018-02-05T23:40:13.408Z,7.08
2018-02-05T23:42:39.804Z,7.18
2018-02-05T23:45:06.147Z,7.12
2018-02-05T23:47:32.521Z,7.11
2018-02-05T23:49:58.893Z,6.98
2018-02-05T23:52:25.260Z,7.07
2018-02-05T23:54:51.637Z,7.02
2018-02-05T23:57:18.001Z,6.90
2018-02-05T23:59:44.340Z,6.83
